createdAt,value
2022-10-22T00:00:50.560Z,1.20
2022-10-22T00:03:17.823Z,1.02
2022-10-22T00:05:44.986Z,1.20
2022-10-22T00:08:12.196Z,1.98
2022-10-22T00:10:39.424Z,1.95
2022-10-22T00:13:06.567Z,2.03
2022-10-22T00:15:33.713Z,1.55
2022-10-22T00:18:00.845Z,2.58
2022-10-22T00:20:28.051Z,2.47
2022-10-22T00:22:55.264Z,1.80
2022-10-22T00:25:22.464Z,2.63
2022-10-22T00:27:49.641Z,1.77
2022-10-22T00:30:16.874Z,1.98
2022-10-22T00:32:44.028Z,1.50
2022-10-22T00:35:11.185Z,2.35
2022-10-22T00:37:38.370Z,1.10
2022-10-22T00:40:05.938Z,1.05
2022-10-22T00:42:33.133Z,1.27
2022-10-22T00:45:12.544Z,1.40
2022-10-22T00:47:39.719Z,1.35
2022-10-22T00:50:08.637Z,1.65
2022-10-22T00:52:36.349Z,1.30
2022-10-22T00:55:03.639Z,1.55
2022-10-22T00:57:30.928Z,1.50
2022-10-22T00:59:58.440Z,1.73
2022-10-22T01:02:25.654Z,1.30
2022-10-22T01:04:52.913Z,2.17
2022-10-22T01:07:21.915Z,1.80
2022-10-22T01:09:58.445Z,1.58
2022-10-22T01:12:44.437Z,1.42
2022-10-22T01:15:29.667Z,1.70
2022-10-22T01:18:17.049Z,1.58
2022-10-22T01:20:48.255Z,1.60
2022-10-22T01:23:18.449Z,2.78
2022-10-22T01:25:56.756Z,1.80
2022-10-22T01:28:26.780Z,2.17
2022-10-22T01:30:55.245Z,1.52
2022-10-22T01:33:23.511Z,1.95
2022-10-22T01:35:50.933Z,2.53
2022-10-22T01:38:20.168Z,1.95
2022-10-22T01:40:48.125Z,2.25
2022-10-22T01:43:15.388Z,1.60
2022-10-22T01:45:53.279Z,2.10
2022-10-22T01:48:23.433Z,1.85
2022-10-22T01:50:53.540Z,1.05
2022-10-22T01:53:23.923Z,2.03
2022-10-22T01:56:02.395Z,1.73
2022-10-22T01:58:32.327Z,1.98
2022-10-22T02:01:05.030Z,1.25
2022-10-22T02:03:39.001Z,1.38
2022-10-22T02:06:08.723Z,1.25
2022-10-22T02:08:36.953Z,1.42
2022-10-22T02:11:05.342Z,1.60
2022-10-22T02:13:36.750Z,2.13
2022-10-22T02:16:05.181Z,1.15
2022-10-22T02:18:39.458Z,0.90
2022-10-22T02:23:39.587Z,1.10
2022-10-22T02:26:19.097Z,1.10
2022-10-22T02:28:57.987Z,1.35
2022-10-22T02:31:30.958Z,1.55
2022-10-22T02:34:02.180Z,1.90
2022-10-22T02:36:29.467Z,1.55
2022-10-22T02:38:56.948Z,1.55
2022-10-22T02:41:24.627Z,1.30
2022-10-22T02:43:57.127Z,0.85
2022-10-22T02:46:25.099Z,1.50
2022-10-22T02:48:52.261Z,1.52
2022-10-22T02:51:19.496Z,0.73
2022-10-22T02:53:46.677Z,1.45
2022-10-22T02:56:14.220Z,0.98
2022-10-22T02:58:41.489Z,1.08
2022-10-22T03:01:10.362Z,1.33
2022-10-22T03:03:44.255Z,1.20
2022-10-22T03:06:11.486Z,2.10
2022-10-22T03:08:42.478Z,1.23
2022-10-22T03:11:09.745Z,1.58
2022-10-22T03:13:37.018Z,1.33
2022-10-22T03:16:04.280Z,1.60
2022-10-22T03:18:31.450Z,0.90
2022-10-22T03:21:02.632Z,0.95
2022-10-22T03:23:29.835Z,2.05
2022-10-22T03:25:57.057Z,1.60
2022-10-22T03:28:24.198Z,1.40
2022-10-22T03:30:51.303Z,0.90
2022-10-22T03:33:18.500Z,1.48
2022-10-22T03:35:46.802Z,1.20
2022-10-22T03:38:14.126Z,1.10
2022-10-22T03:40:42.404Z,1.25
2022-10-22T03:43:09.748Z,1.40
2022-10-22T03:48:09.127Z,1.58
2022-10-22T03:50:36.345Z,1.45
2022-10-22T03:53:03.536Z,2.10
2022-10-22T03:55:30.682Z,1.50
2022-10-22T03:57:58.213Z,1.48
2022-10-22T04:00:25.373Z,1.40
2022-10-22T04:02:52.508Z,1.83
2022-10-22T04:05:21.900Z,1.15
2022-10-22T04:07:49.047Z,1.50
2022-10-22T04:10:19.028Z,1.10
2022-10-22T04:12:48.306Z,1.48
2022-10-22T04:15:15.631Z,2.47
2022-10-22T04:17:43.194Z,1.20
2022-10-22T04:20:11.042Z,1.10
2022-10-22T04:22:38.265Z,1.20
2022-10-22T04:25:07.026Z,1.60
2022-10-22T04:27:38.161Z,2.55
2022-10-22T04:30:06.681Z,1.75
2022-10-22T04:32:33.822Z,2.45
2022-10-22T04:35:03.288Z,2.53
2022-10-22T04:37:30.458Z,1.52
2022-10-22T04:39:58.278Z,1.25
2022-10-22T04:42:25.749Z,1.27
2022-10-22T04:44:53.056Z,1.42
2022-10-22T04:47:20.196Z,1.30
2022-10-22T04:49:47.304Z,1.25
2022-10-22T04:52:14.421Z,1.52
2022-10-22T04:54:41.605Z,1.88
2022-10-22T04:57:08.742Z,1.90
2022-10-22T04:59:35.885Z,2.08
2022-10-22T05:02:03.060Z,1.77
2022-10-22T05:04:32.545Z,1.75
2022-10-22T05:06:59.666Z,1.63
2022-10-22T05:09:26.900Z,1.60
2022-10-22T05:11:54.088Z,2.05
2022-10-22T05:14:25.115Z,1.60
2022-10-22T05:16:54.895Z,1.40
2022-10-22T05:19:24.145Z,1.58
2022-10-22T05:21:52.154Z,1.80
2022-10-22T05:24:19.385Z,1.60
2022-10-22T05:26:46.560Z,1.38
2022-10-22T05:29:14.225Z,1.60
2022-10-22T05:31:43.782Z,1.63
2022-10-22T05:34:11.151Z,1.90
2022-10-22T05:36:38.303Z,2.17
2022-10-22T05:39:05.848Z,1.90
2022-10-22T05:41:33.469Z,1.70
2022-10-22T05:44:01.075Z,1.88
2022-10-22T05:46:31.611Z,1.33
2022-10-22T05:49:00.073Z,1.58
2022-10-22T05:51:28.434Z,1.38
2022-10-22T05:54:01.657Z,1.80
2022-10-22T05:56:29.466Z,1.55
2022-10-22T05:58:57.153Z,1.52
2022-10-22T06:01:28.002Z,1.52
2022-10-22T06:03:56.542Z,1.50
2022-10-22T06:06:23.884Z,1.10
2022-10-22T06:08:54.045Z,1.48
2022-10-22T06:11:22.301Z,1.02
2022-10-22T06:13:49.672Z,1.30
2022-10-22T06:16:16.879Z,1.52
2022-10-22T06:18:44.062Z,1.25
2022-10-22T06:21:12.526Z,1.45
2022-10-22T06:23:40.401Z,2.22
2022-10-22T06:26:08.058Z,1.63
2022-10-22T06:28:35.608Z,1.50
2022-10-22T06:31:03.187Z,1.20
2022-10-22T06:33:31.903Z,1.70
2022-10-22T06:36:12.821Z,1.20
2022-10-22T06:38:42.147Z,2.35
2022-10-22T06:41:10.467Z,1.85
2022-10-22T06:43:37.959Z,2.45
2022-10-22T06:46:14.787Z,1.85
2022-10-22T06:48:48.748Z,1.52
2022-10-22T06:51:20.997Z,1.30
2022-10-22T06:53:48.837Z,1.60
2022-10-22T06:56:17.429Z,1.98
2022-10-22T06:58:47.342Z,1.58
2022-10-22T07:01:15.271Z,1.58
2022-10-22T07:03:42.612Z,1.05
2022-10-22T07:06:13.385Z,1.25
2022-10-22T07:08:41.066Z,1.33
2022-10-22T07:11:11.420Z,1.63
2022-10-22T07:13:38.671Z,1.35
2022-10-22T07:16:06.726Z,1.25
2022-10-22T07:18:36.088Z,1.85
2022-10-22T07:21:03.322Z,1.92
2022-10-22T07:23:30.480Z,1.38
2022-10-22T07:25:57.959Z,1.20
2022-10-22T07:28:25.383Z,1.20
2022-10-22T07:30:52.570Z,1.63
2022-10-22T07:33:24.133Z,2.10
2022-10-22T07:35:53.428Z,1.45
2022-10-22T07:38:20.635Z,1.35
2022-10-22T07:40:47.923Z,1.50
2022-10-22T07:43:15.450Z,1.73
2022-10-22T07:45:44.919Z,1.42
2022-10-22T07:48:12.151Z,1.95
2022-10-22T07:50:41.599Z,1.20
2022-10-22T07:53:10.532Z,1.30
2022-10-22T07:55:42.098Z,1.27
2022-10-22T07:58:09.269Z,1.00
2022-10-22T08:00:37.806Z,1.52
2022-10-22T08:03:05.127Z,1.80
2022-10-22T08:05:34.316Z,1.17
2022-10-22T08:08:01.464Z,1.65
2022-10-22T08:10:31.609Z,1.15
2022-10-22T08:13:03.123Z,1.60
2022-10-22T08:15:31.083Z,1.30
2022-10-22T08:17:58.311Z,1.40
2022-10-22T08:20:25.525Z,1.27
2022-10-22T08:22:52.764Z,1.15
2022-10-22T08:25:19.920Z,1.33
2022-10-22T08:27:47.169Z,1.38
2022-10-22T08:30:14.828Z,1.42
2022-10-22T08:32:42.429Z,1.48
2022-10-22T08:35:11.118Z,1.40
2022-10-22T08:37:40.343Z,1.38
2022-10-22T08:40:07.913Z,1.95
2022-10-22T08:42:38.809Z,1.33
2022-10-22T08:45:26.254Z,1.45
2022-10-22T08:48:10.948Z,1.30
2022-10-22T08:50:43.022Z,1.20
2022-10-22T08:53:14.834Z,1.05
2022-10-22T08:55:42.647Z,1.30
2022-10-22T08:58:18.756Z,1.50
2022-10-22T09:00:48.290Z,1.63
2022-10-22T09:03:15.484Z,1.40
2022-10-22T09:05:42.724Z,1.60
2022-10-22T09:08:14.411Z,0.85
2022-10-22T09:10:44.619Z,1.00
2022-10-22T09:13:14.071Z,1.38
2022-10-22T09:15:43.735Z,1.27
2022-10-22T09:18:25.019Z,0.95
2022-10-22T09:21:00.579Z,1.23
2022-10-22T09:23:38.650Z,1.15
2022-10-22T09:26:15.422Z,0.90
2022-10-22T09:28:43.158Z,0.85
2022-10-22T09:31:14.249Z,1.50
2022-10-22T09:33:45.610Z,1.67
2022-10-22T09:36:27.477Z,0.95
2022-10-22T09:38:54.819Z,0.80
2022-10-22T09:41:25.772Z,1.13
2022-10-22T09:43:53.121Z,1.00
2022-10-22T09:46:21.547Z,0.90
2022-10-22T09:49:09.006Z,0.80
2022-10-22T09:51:38.581Z,0.80
2022-10-22T09:54:15.137Z,1.00
2022-10-22T09:56:43.288Z,1.08
2022-10-22T09:59:15.664Z,1.30
2022-10-22T10:01:43.132Z,1.17
2022-10-22T10:04:11.868Z,0.90
2022-10-22T10:06:43.059Z,0.98
2022-10-22T10:09:18.346Z,0.80
2022-10-22T10:11:51.840Z,0.90
2022-10-22T10:14:22.053Z,1.50
2022-10-22T10:16:49.265Z,1.00
2022-10-22T10:19:32.676Z,1.00
2022-10-22T10:22:05.670Z,1.20
2022-10-22T10:24:48.720Z,1.25
2022-10-22T10:27:20.849Z,1.00
2022-10-22T10:29:48.026Z,1.05
2022-10-22T10:32:33.820Z,1.30
2022-10-22T10:35:00.964Z,1.17
2022-10-22T10:37:37.065Z,1.30
2022-10-22T10:40:15.194Z,0.90
2022-10-22T10:42:50.146Z,1.08
2022-10-22T10:45:38.648Z,1.02
2022-10-22T10:48:08.345Z,1.00
2022-10-22T10:50:38.651Z,0.82
2022-10-22T10:53:24.520Z,1.20
2022-10-22T10:56:00.945Z,1.13
2022-10-22T10:58:51.940Z,1.50
2022-10-22T11:01:19.121Z,1.13
2022-10-22T11:04:01.093Z,1.00
2022-10-22T11:06:29.503Z,1.30
2022-10-22T11:09:12.108Z,1.30
2022-10-22T11:11:48.800Z,1.05
2022-10-22T11:14:20.388Z,1.35
2022-10-22T11:16:50.412Z,1.15
2022-10-22T11:19:23.111Z,1.30
2022-10-22T11:22:19.935Z,1.20
2022-10-22T11:25:02.142Z,1.00
2022-10-22T11:27:29.336Z,1.15
2022-10-22T11:30:04.868Z,1.35
2022-10-22T11:32:32.541Z,1.33
2022-10-22T11:35:04.487Z,1.38
2022-10-22T11:37:34.852Z,1.10
2022-10-22T11:40:22.281Z,0.70
2022-10-22T11:43:08.714Z,0.95
2022-10-22T11:45:40.087Z,1.10
2022-10-22T11:48:10.391Z,1.27
2022-10-22T11:50:50.775Z,1.13
2022-10-22T11:53:19.559Z,1.10
2022-10-22T11:55:49.688Z,1.17
2022-10-22T11:58:26.193Z,1.45
2022-10-22T12:00:53.399Z,1.40
2022-10-22T12:03:25.504Z,1.15
2022-10-22T12:06:15.350Z,1.50
2022-10-22T12:08:45.637Z,1.40
2022-10-22T12:11:12.925Z,1.13
2022-10-22T12:13:59.161Z,1.75
2022-10-22T12:16:37.923Z,1.35
2022-10-22T12:19:16.635Z,1.08
2022-10-22T12:21:46.758Z,1.33
2022-10-22T12:24:15.304Z,1.10
2022-10-22T12:26:43.508Z,1.02
2022-10-22T12:29:12.741Z,1.17
2022-10-22T12:31:41.189Z,1.38
2022-10-22T12:34:08.734Z,1.60
2022-10-22T12:36:37.246Z,1.45
2022-10-22T12:39:10.183Z,1.40
2022-10-22T12:41:38.585Z,1.35
2022-10-22T12:44:06.111Z,1.80
2022-10-22T12:46:34.948Z,1.98
2022-10-22T12:49:07.624Z,1.30
2022-10-22T12:54:05.711Z,1.42
2022-10-22T12:56:34.148Z,1.33
2022-10-22T12:59:03.483Z,1.40
2022-10-22T13:01:34.825Z,1.40
2022-10-22T13:04:20.464Z,1.58
2022-10-22T13:06:50.764Z,1.40
2022-10-22T13:09:25.201Z,2.38
2022-10-22T13:12:05.604Z,1.00
2022-10-22T13:14:34.571Z,1.70
2022-10-22T13:17:18.153Z,1.17
2022-10-22T13:19:54.550Z,1.20
2022-10-22T13:22:38.564Z,1.27
2022-10-22T13:25:19.952Z,1.10
2022-10-22T13:27:51.833Z,1.20
2022-10-22T13:30:24.794Z,1.33
2022-10-22T13:32:53.438Z,1.42
2022-10-22T13:35:22.357Z,1.48
2022-10-22T13:37:49.835Z,1.40
2022-10-22T13:40:17.174Z,0.95
2022-10-22T13:42:44.732Z,1.42
2022-10-22T13:45:13.491Z,1.55
2022-10-22T13:47:41.135Z,1.40
2022-10-22T13:50:13.837Z,1.30
2022-10-22T13:52:50.280Z,1.30
2022-10-22T13:55:22.201Z,0.90
2022-10-22T13:57:49.676Z,1.33
2022-10-22T14:00:18.230Z,1.15
2022-10-22T14:02:47.112Z,1.55
2022-10-22T14:05:15.161Z,1.65
2022-10-22T14:07:42.736Z,1.08
2022-10-22T14:10:17.638Z,1.17
2022-10-22T14:12:47.343Z,1.27
2022-10-22T14:15:17.908Z,1.80
2022-10-22T14:17:49.400Z,1.20
2022-10-22T14:20:19.102Z,1.20
2022-10-22T14:22:47.329Z,0.95
2022-10-22T14:25:15.705Z,1.75
2022-10-22T14:27:43.239Z,1.15
2022-10-22T14:30:14.469Z,1.52
2022-10-22T14:32:41.961Z,1.40
2022-10-22T14:35:12.524Z,1.30
2022-10-22T14:37:39.762Z,1.52
2022-10-22T14:40:07.372Z,1.60
2022-10-22T14:42:40.193Z,1.02
2022-10-22T14:45:08.324Z,1.63
2022-10-22T14:47:35.537Z,1.30
2022-10-22T14:50:04.994Z,1.38
2022-10-22T14:52:32.197Z,1.42
2022-10-22T14:54:59.402Z,1.27
2022-10-22T14:57:29.102Z,1.15
2022-10-22T14:59:56.341Z,1.30
2022-10-22T15:02:23.540Z,1.08
2022-10-22T15:04:50.820Z,1.63
2022-10-22T15:07:19.078Z,1.27
2022-10-22T15:09:46.708Z,0.90
2022-10-22T15:12:20.537Z,1.08
2022-10-22T15:14:53.143Z,1.17
2022-10-22T15:17:20.460Z,1.30
2022-10-22T15:19:47.701Z,1.13
2022-10-22T15:22:15.424Z,0.93
2022-10-22T15:24:46.042Z,1.20
2022-10-22T15:27:13.818Z,1.10
2022-10-22T15:29:41.540Z,1.60
2022-10-22T15:32:10.472Z,1.65
2022-10-22T15:34:40.887Z,0.82
2022-10-22T15:37:09.579Z,1.10
2022-10-22T15:39:39.581Z,1.15
2022-10-22T15:42:06.876Z,1.13
2022-10-22T15:44:34.127Z,1.05
2022-10-22T15:47:03.308Z,1.10
2022-10-22T15:49:30.912Z,1.20
2022-10-22T15:51:58.085Z,0.80
2022-10-22T15:54:28.035Z,1.50
2022-10-22T15:56:55.927Z,1.27
2022-10-22T15:59:23.268Z,1.35
2022-10-22T16:01:51.001Z,1.35
2022-10-22T16:04:18.309Z,1.38
2022-10-22T16:06:47.030Z,1.48
2022-10-22T16:09:15.258Z,1.08
2022-10-22T16:11:47.719Z,1.27
2022-10-22T16:14:15.750Z,0.90
2022-10-22T16:16:44.021Z,1.00
2022-10-22T16:19:15.147Z,1.25
2022-10-22T16:21:42.397Z,1.20
2022-10-22T16:24:10.170Z,1.20
2022-10-22T16:26:37.370Z,1.10
2022-10-22T16:29:05.399Z,1.33
2022-10-22T16:31:32.619Z,1.52
2022-10-22T16:33:59.878Z,2.15
2022-10-22T16:36:27.124Z,2.28
2022-10-22T16:38:54.633Z,1.15
2022-10-22T16:41:23.251Z,1.17
2022-10-22T16:43:51.763Z,1.45
2022-10-22T16:46:19.973Z,1.65
2022-10-22T16:48:47.828Z,1.45
2022-10-22T16:51:16.379Z,1.35
2022-10-22T16:53:45.392Z,1.80
2022-10-22T16:56:13.323Z,1.85
2022-10-22T16:58:44.056Z,1.60
2022-10-22T17:01:11.266Z,1.38
2022-10-22T17:03:38.499Z,1.65
2022-10-22T17:06:06.149Z,2.72
2022-10-22T17:08:35.351Z,4.35
2022-10-22T17:11:06.767Z,2.45
2022-10-22T17:13:34.005Z,1.70
2022-10-22T17:16:10.713Z,1.67
2022-10-22T17:18:39.061Z,1.67
2022-10-22T17:21:06.608Z,1.90
2022-10-22T17:23:33.800Z,2.25
2022-10-22T17:26:06.451Z,2.05
2022-10-22T17:31:05.175Z,2.25
2022-10-22T17:33:32.544Z,1.83
2022-10-22T17:35:59.925Z,1.67
2022-10-22T17:38:27.353Z,2.00
2022-10-22T17:40:54.694Z,1.67
2022-10-22T17:43:21.898Z,1.80
2022-10-22T17:45:49.191Z,2.20
2022-10-22T17:48:18.524Z,2.28
2022-10-22T17:50:48.293Z,1.92
2022-10-22T17:53:18.411Z,1.85
2022-10-22T17:55:45.657Z,2.42
2022-10-22T17:58:12.836Z,2.35
2022-10-22T18:00:40.025Z,1.98
2022-10-22T18:03:07.374Z,1.95
2022-10-22T18:05:34.688Z,1.60
2022-10-22T18:08:06.867Z,1.30
2022-10-22T18:10:39.597Z,1.85
2022-10-22T18:13:06.887Z,2.07
2022-10-22T18:15:36.303Z,1.60
2022-10-22T18:18:04.273Z,1.77
2022-10-22T18:20:31.641Z,1.42
2022-10-22T18:22:58.925Z,1.50
2022-10-22T18:25:26.181Z,1.42
2022-10-22T18:27:53.430Z,2.08
2022-10-22T18:30:20.677Z,2.15
2022-10-22T18:32:47.916Z,1.85
2022-10-22T18:35:15.125Z,1.92
2022-10-22T18:37:42.672Z,1.60
2022-10-22T18:40:15.348Z,1.67
2022-10-22T18:45:12.012Z,2.10
2022-10-22T18:47:42.678Z,2.40
2022-10-22T18:50:10.284Z,2.58
2022-10-22T18:52:37.612Z,2.30
2022-10-22T18:55:05.044Z,2.95
2022-10-22T18:57:32.633Z,2.28
2022-10-22T18:59:59.846Z,2.50
2022-10-22T19:02:27.214Z,2.55
2022-10-22T19:04:54.402Z,2.65
2022-10-22T19:07:21.609Z,3.05
2022-10-22T19:09:48.950Z,2.90
2022-10-22T19:12:16.256Z,3.40
2022-10-22T19:14:43.540Z,3.53
2022-10-22T19:17:10.728Z,2.00
2022-10-22T19:19:37.929Z,2.55
2022-10-22T19:22:05.260Z,3.60
2022-10-22T19:24:32.494Z,2.90
2022-10-22T19:26:59.710Z,2.13
2022-10-22T19:29:26.943Z,2.17
2022-10-22T19:31:54.246Z,3.05
2022-10-22T19:34:21.620Z,1.80
2022-10-22T19:36:51.666Z,2.15
2022-10-22T19:39:19.395Z,1.52
2022-10-22T19:41:46.638Z,2.15
2022-10-22T19:44:13.924Z,2.10
2022-10-22T19:46:41.170Z,2.33
2022-10-22T19:49:08.402Z,2.22
2022-10-22T19:51:35.718Z,1.65
2022-10-22T19:54:04.560Z,3.13
2022-10-22T19:56:32.518Z,3.05
2022-10-22T19:58:59.843Z,3.17
2022-10-22T20:01:27.399Z,2.47
2022-10-22T20:03:54.678Z,2.47
2022-10-22T20:06:22.048Z,1.40
2022-10-22T20:08:51.125Z,1.55
2022-10-22T20:11:22.478Z,1.40
2022-10-22T20:13:52.275Z,1.30
2022-10-22T20:16:23.062Z,2.88
2022-10-22T20:18:51.174Z,2.22
2022-10-22T20:21:21.912Z,2.05
2022-10-22T20:23:52.079Z,1.10
2022-10-22T20:26:19.438Z,1.88
2022-10-22T20:28:46.682Z,1.42
2022-10-22T20:31:15.509Z,1.30
2022-10-22T20:33:42.877Z,1.20
2022-10-22T20:36:13.319Z,1.30
2022-10-22T20:38:40.492Z,1.48
2022-10-22T20:41:12.125Z,1.08
2022-10-22T20:43:39.400Z,1.50
2022-10-22T20:46:06.667Z,1.90
2022-10-22T20:48:34.268Z,1.20
2022-10-22T20:51:01.841Z,1.52
2022-10-22T20:53:29.082Z,1.23
2022-10-22T20:55:58.338Z,1.08
2022-10-22T20:58:27.076Z,1.75
2022-10-22T21:00:55.136Z,2.28
2022-10-22T21:03:22.910Z,2.00
2022-10-22T21:05:50.185Z,2.20
2022-10-22T21:08:17.761Z,1.92
2022-10-22T21:10:49.455Z,1.80
2022-10-22T21:13:19.457Z,1.77
2022-10-22T21:15:46.698Z,1.15
2022-10-22T21:18:13.952Z,2.00
2022-10-22T21:20:41.348Z,1.83
2022-10-22T21:23:09.312Z,1.20
2022-10-22T21:25:40.707Z,1.75
2022-10-22T21:28:10.520Z,1.63
2022-10-22T21:30:37.735Z,1.40
2022-10-22T21:33:04.981Z,1.33
2022-10-22T21:35:33.362Z,1.73
2022-10-22T21:38:00.601Z,2.05
2022-10-22T21:40:28.424Z,2.10
2022-10-22T21:42:55.596Z,1.25
2022-10-22T21:45:22.872Z,1.40
2022-10-22T21:47:50.224Z,1.33
2022-10-22T21:50:17.480Z,1.33
2022-10-22T21:52:44.739Z,1.30
2022-10-22T21:55:11.979Z,1.38
2022-10-22T21:57:39.224Z,1.40
2022-10-22T22:00:07.560Z,1.88
2022-10-22T22:02:34.756Z,1.60
2022-10-22T22:05:01.935Z,1.80
2022-10-22T22:07:29.176Z,1.45
2022-10-22T22:09:56.372Z,2.60
2022-10-22T22:12:23.598Z,1.85
2022-10-22T22:14:50.812Z,1.38
2022-10-22T22:17:18.578Z,1.55
2022-10-22T22:19:45.769Z,1.90
2022-10-22T22:22:12.919Z,2.15
2022-10-22T22:24:40.182Z,2.38
2022-10-22T22:27:07.531Z,2.00
2022-10-22T22:29:35.131Z,1.90
2022-10-22T22:32:02.375Z,2.33
2022-10-22T22:34:32.110Z,2.67
2022-10-22T22:36:59.332Z,2.65
2022-10-22T22:39:29.341Z,3.25
2022-10-22T22:41:56.535Z,3.75
2022-10-22T22:44:23.743Z,5.30
2022-10-22T22:46:50.948Z,4.85
2022-10-22T22:49:18.217Z,4.60
2022-10-22T22:51:45.456Z,2.78
2022-10-22T22:54:13.052Z,3.65
2022-10-22T22:56:40.949Z,2.92
2022-10-22T22:59:08.487Z,2.90
2022-10-22T23:01:36.874Z,2.17
2022-10-22T23:04:08.442Z,2.17
2022-10-22T23:06:37.699Z,2.17
2022-10-22T23:09:06.079Z,2.10
2022-10-22T23:11:33.554Z,1.52
2022-10-22T23:14:01.788Z,1.67
2022-10-22T23:16:30.383Z,1.85
2022-10-22T23:18:57.924Z,1.52
2022-10-22T23:21:34.873Z,1.70
2022-10-22T23:24:03.123Z,1.70
2022-10-22T23:26:35.157Z,2.35
2022-10-22T23:29:06.552Z,1.70
2022-10-22T23:31:33.748Z,1.95
2022-10-22T23:34:01.163Z,1.50
2022-10-22T23:36:28.864Z,1.90
2022-10-22T23:38:56.071Z,1.70
2022-10-22T23:41:23.488Z,2.15
2022-10-22T23:43:51.179Z,1.45
2022-10-22T23:46:18.459Z,1.33
2022-10-22T23:48:46.284Z,1.42
2022-10-22T23:51:14.829Z,1.30
2022-10-22T23:53:43.013Z,1.67
2022-10-22T23:56:11.533Z,1.30
2022-10-22T23:58:38.708Z,1.27
